createdAt,value
2019-04-14T00:00:01.841Z,2.07
2019-04-14T00:01:02.214Z,2.13
2019-04-14T00:02:02.861Z,2.11
2019-04-14T00:03:02.280Z,2.07
2019-04-14T00:04:02.964Z,2.06
2019-04-14T00:05:01.914Z,2.06
2019-04-14T00:06:02.672Z,2.10
2019-04-14T00:07:01.904Z,2.06
2019-04-14T00:08:02.439Z,2.07
2019-04-14T00:09:03.150Z,2.11
2019-04-14T00:10:02.861Z,2.06
2019-04-14T00:11:01.837Z,2.06
2019-04-14T00:12:04.730Z,2.06
2019-04-14T00:13:02.670Z,2.15
2019-04-14T00:14:02.919Z,2.15
2019-04-14T00:15:02.502Z,2.22
2019-04-14T00:16:03.059Z,2.14
2019-04-14T00:17:02.136Z,2.17
2019-04-14T00:18:01.707Z,2.18
2019-04-14T00:19:02.308Z,2.28
2019-04-14T00:20:03.162Z,2.25
2019-04-14T00:21:02.245Z,2.32
2019-04-14T00:22:03.076Z,2.25
2019-04-14T00:23:02.201Z,2.28
2019-04-14T00:24:01.671Z,2.28
2019-04-14T00:25:02.365Z,2.28
2019-04-14T00:26:02.977Z,2.29
2019-04-14T00:27:02.049Z,2.29
2019-04-14T00:28:02.941Z,2.24
2019-04-14T00:29:02.665Z,2.31
2019-04-14T00:30:01.731Z,2.29
2019-04-14T00:31:02.332Z,2.28
2019-04-14T00:32:02.972Z,2.18
2019-04-14T00:33:01.942Z,2.15
2019-04-14T00:34:02.837Z,2.17
2019-04-14T00:35:01.765Z,2.13
2019-04-14T00:36:04.490Z,2.18
2019-04-14T00:37:01.397Z,2.17
2019-04-14T00:38:02.364Z,2.22
2019-04-14T00:39:01.410Z,2.13
2019-04-14T00:40:01.957Z,2.20
2019-04-14T00:41:01.444Z,2.15
2019-04-14T00:42:03.395Z,2.15
2019-04-14T00:43:02.674Z,2.14
2019-04-14T00:44:01.527Z,2.17
2019-04-14T00:45:02.726Z,2.13
2019-04-14T00:46:02.704Z,2.24
2019-04-14T00:47:01.298Z,2.26
2019-04-14T00:48:07.907Z,2.31
2019-04-14T00:49:02.817Z,2.28
2019-04-14T00:50:01.705Z,2.24
2019-04-14T00:51:01.279Z,2.28
2019-04-14T00:52:01.566Z,2.33
2019-04-14T00:53:01.272Z,2.33
2019-04-14T00:54:02.185Z,2.42
2019-04-14T00:55:01.235Z,2.44
2019-04-14T00:56:01.980Z,2.39
2019-04-14T00:57:01.237Z,2.44
2019-04-14T00:58:01.659Z,2.39
2019-04-14T00:59:01.313Z,2.46
2019-04-14T01:00:01.811Z,2.38
2019-04-14T01:01:02.596Z,2.39
2019-04-14T01:02:01.391Z,2.43
2019-04-14T01:03:02.549Z,2.42
2019-04-14T01:04:01.281Z,2.38
2019-04-14T01:05:02.441Z,2.33
2019-04-14T01:06:01.250Z,2.32
2019-04-14T01:07:02.188Z,2.36
2019-04-14T01:08:01.110Z,2.42
2019-04-14T01:09:02.135Z,2.39
2019-04-14T01:10:01.833Z,2.43
2019-04-14T01:11:01.160Z,2.36
2019-04-14T01:12:01.790Z,2.44
2019-04-14T01:13:01.028Z,2.38
2019-04-14T01:14:01.601Z,2.32
2019-04-14T01:15:01.022Z,2.33
2019-04-14T01:16:08.739Z,2.42
2019-04-14T01:17:02.762Z,2.39
2019-04-14T01:18:01.484Z,2.42
2019-04-14T01:19:01.128Z,2.31
2019-04-14T01:20:01.454Z,2.38
2019-04-14T01:21:02.407Z,2.36
2019-04-14T01:22:01.102Z,2.36
2019-04-14T01:23:01.963Z,2.39
2019-04-14T01:24:01.074Z,2.42
2019-04-14T01:25:02.284Z,2.42
2019-04-14T01:26:00.891Z,2.42
2019-04-14T01:27:01.707Z,2.43
2019-04-14T01:28:00.995Z,2.35
2019-04-14T01:29:01.421Z,2.38
2019-04-14T01:30:00.847Z,2.39
2019-04-14T01:31:03.248Z,2.25
2019-04-14T01:32:00.884Z,2.22
2019-04-14T01:33:01.122Z,2.17
2019-04-14T01:34:01.867Z,2.15
2019-04-14T01:35:01.011Z,2.18
2019-04-14T01:36:01.730Z,2.13
2019-04-14T01:37:01.026Z,2.07
2019-04-14T01:38:01.612Z,2.06
2019-04-14T01:39:00.958Z,2.17
2019-04-14T01:40:00.973Z,2.18
2019-04-14T01:41:02.020Z,2.04
2019-04-14T01:42:00.776Z,2.04
2019-04-14T01:43:01.729Z,2.08
2019-04-14T01:44:00.731Z,2.14
2019-04-14T01:45:01.402Z,2.00
2019-04-14T01:46:09.721Z,1.97
2019-04-14T01:47:01.677Z,1.92
2019-04-14T01:48:01.715Z,1.94
2019-04-14T01:49:00.740Z,1.91
2019-04-14T01:50:01.754Z,1.91
2019-04-14T01:51:00.638Z,1.78
2019-04-14T01:52:01.372Z,1.77
2019-04-14T01:53:01.140Z,1.70
2019-04-14T01:54:01.783Z,1.70
2019-04-14T01:55:00.596Z,1.77
2019-04-14T01:56:01.324Z,1.68
2019-04-14T01:57:00.574Z,1.70
2019-04-14T01:58:01.053Z,1.76
2019-04-14T01:59:00.554Z,1.77
2019-04-14T02:00:01.053Z,1.74
2019-04-14T02:01:00.554Z,1.70
2019-04-14T02:02:00.819Z,1.68
2019-04-14T02:03:00.572Z,1.67
2019-04-14T02:04:00.737Z,1.62
2019-04-14T02:05:01.757Z,1.60
2019-04-14T02:06:00.536Z,1.66
2019-04-14T02:07:01.596Z,1.55
2019-04-14T02:08:00.654Z,1.62
2019-04-14T02:09:01.166Z,1.56
2019-04-14T02:10:01.770Z,1.56
2019-04-14T02:11:00.907Z,1.55
2019-04-14T02:12:01.592Z,1.56
2019-04-14T02:13:00.672Z,1.58
2019-04-14T02:14:01.614Z,1.53
2019-04-14T02:15:00.502Z,1.56
2019-04-14T02:16:13.027Z,1.56
2019-04-14T02:17:04.243Z,1.49
2019-04-14T02:18:00.943Z,1.53
2019-04-14T02:19:00.425Z,1.48
2019-04-14T02:20:01.234Z,1.49
2019-04-14T02:21:00.360Z,1.48
2019-04-14T02:22:00.696Z,1.50
2019-04-14T02:23:01.688Z,1.40
2019-04-14T02:24:00.547Z,1.42
2019-04-14T02:25:01.445Z,1.40
2019-04-14T02:26:00.293Z,1.50
2019-04-14T02:27:01.268Z,1.44
2019-04-14T02:28:00.306Z,1.41
2019-04-14T02:29:01.435Z,1.31
2019-04-14T02:30:00.477Z,1.35
2019-04-14T02:31:15.332Z,1.28
2019-04-14T02:32:38.693Z,1.31
2019-04-14T02:33:32.147Z,1.38
2019-04-14T02:35:28.543Z,1.44
2019-04-14T02:36:30.576Z,1.38
2019-04-14T02:37:26.410Z,1.31
2019-04-14T02:39:29.303Z,1.32
2019-04-14T02:40:45.400Z,1.40
2019-04-14T02:41:49.241Z,1.38
2019-04-14T02:42:40.216Z,1.37
2019-04-14T02:43:30.356Z,1.44
2019-04-14T02:44:32.466Z,1.52
2019-04-14T02:45:31.695Z,1.52
2019-04-14T02:46:32.029Z,1.44
2019-04-14T02:47:45.433Z,1.42
2019-04-14T02:48:35.754Z,1.38
2019-04-14T02:49:29.395Z,1.32
2019-04-14T02:50:27.169Z,1.41
2019-04-14T02:51:26.864Z,1.42
2019-04-14T02:52:30.405Z,1.31
2019-04-14T02:53:32.625Z,1.26
2019-04-14T02:54:36.644Z,1.37
2019-04-14T02:55:22.166Z,1.41
2019-04-14T02:57:37.732Z,1.30
2019-04-14T02:58:36.246Z,1.31
2019-04-14T02:59:27.112Z,1.19
2019-04-14T03:00:33.167Z,1.24
2019-04-14T03:02:30.225Z,1.19
2019-04-14T03:03:31.696Z,1.10
2019-04-14T03:04:25.829Z,1.16
2019-04-14T03:05:26.487Z,1.13
2019-04-14T03:06:26.066Z,1.13
2019-04-14T03:07:30.664Z,1.06
2019-04-14T03:10:31.919Z,1.17
2019-04-14T03:11:30.914Z,1.10
2019-04-14T03:12:34.712Z,1.04
2019-04-14T03:13:29.352Z,1.05
2019-04-14T03:14:30.809Z,0.96
2019-04-14T03:15:23.992Z,0.95
2019-04-14T03:16:29.645Z,1.04
2019-04-14T03:17:29.135Z,1.02
2019-04-14T03:19:29.880Z,0.98
2019-04-14T03:20:27.823Z,1.02
2019-04-14T03:21:28.045Z,1.02
2019-04-14T03:22:28.967Z,0.95
2019-04-14T03:23:37.604Z,0.98
2019-04-14T03:24:28.546Z,0.98
2019-04-14T03:25:17.463Z,0.91
2019-04-14T03:26:28.086Z,0.88
2019-04-14T03:27:30.528Z,0.92
2019-04-14T03:28:37.905Z,0.87
2019-04-14T03:29:29.208Z,0.98
2019-04-14T03:31:52.031Z,0.91
2019-04-14T03:32:52.886Z,0.92
2019-04-14T03:33:52.502Z,0.77
2019-04-14T03:36:01.397Z,0.77
2019-04-14T03:38:26.315Z,0.76
2019-04-14T03:39:33.420Z,0.83
2019-04-14T03:40:27.609Z,0.86
2019-04-14T03:41:29.930Z,0.84
2019-04-14T03:42:28.695Z,0.86
2019-04-14T03:43:25.034Z,0.87
2019-04-14T03:44:28.626Z,0.78
2019-04-14T03:45:36.176Z,0.84
2019-04-14T03:46:39.286Z,0.83
2019-04-14T03:47:25.044Z,0.86
2019-04-14T03:48:54.115Z,0.73
2019-04-14T03:51:43.191Z,0.74
2019-04-14T03:52:31.883Z,0.62
2019-04-14T03:53:27.201Z,0.66
2019-04-14T03:54:20.094Z,0.68
2019-04-14T03:55:16.032Z,0.77
2019-04-14T03:56:05.787Z,0.77
2019-04-14T03:57:00.380Z,0.69
2019-04-14T03:58:00.537Z,0.70
2019-04-14T03:58:59.837Z,0.69
2019-04-14T04:00:00.612Z,0.69
2019-04-14T04:00:59.775Z,0.70
2019-04-14T04:01:59.342Z,0.66
2019-04-14T04:02:59.778Z,0.68
2019-04-14T04:03:59.276Z,0.69
2019-04-14T04:04:59.875Z,0.68
2019-04-14T04:06:00.680Z,0.68
2019-04-14T04:06:59.617Z,0.63
2019-04-14T04:08:00.324Z,0.66
2019-04-14T04:08:59.669Z,0.68
2019-04-14T04:10:00.496Z,0.63
2019-04-14T04:10:59.787Z,0.66
2019-04-14T04:12:00.523Z,0.68
2019-04-14T04:12:59.721Z,0.56
2019-04-14T04:13:59.220Z,0.47
2019-04-14T04:14:59.667Z,0.59
2019-04-14T04:16:00.434Z,0.55
2019-04-14T04:16:59.549Z,0.58
2019-04-14T04:18:00.210Z,0.56
2019-04-14T04:19:05.645Z,0.65
2019-04-14T04:20:00.149Z,0.62
2019-04-14T04:20:59.273Z,0.69
2019-04-14T04:21:59.577Z,0.65
2019-04-14T04:22:59.248Z,0.66
2019-04-14T04:23:59.689Z,0.63
2019-04-14T04:24:59.310Z,0.68
2019-04-14T04:25:59.454Z,0.65
2019-04-14T04:27:00.129Z,0.59
2019-04-14T04:27:59.147Z,0.63
2019-04-14T04:29:00.512Z,0.60
2019-04-14T04:29:59.225Z,0.60
2019-04-14T04:30:59.143Z,0.66
2019-04-14T04:31:59.137Z,0.59
2019-04-14T04:33:00.051Z,0.68
2019-04-14T04:33:59.070Z,0.56
2019-04-14T04:34:59.918Z,0.55
2019-04-14T04:35:58.954Z,0.46
2019-04-14T04:36:59.599Z,0.44
2019-04-14T04:37:58.979Z,0.47
2019-04-14T04:38:59.631Z,0.50
2019-04-14T04:39:59.269Z,0.50
2019-04-14T04:40:59.443Z,0.55
2019-04-14T04:41:58.910Z,0.46
2019-04-14T04:42:59.189Z,0.49
2019-04-14T04:43:58.871Z,0.52
2019-04-14T04:44:59.557Z,0.39
2019-04-14T04:45:58.897Z,0.39
2019-04-14T04:46:59.155Z,0.46
2019-04-14T04:48:00.119Z,0.47
2019-04-14T04:49:08.259Z,0.40
2019-04-14T04:50:00.088Z,0.44
2019-04-14T04:50:59.021Z,0.43
2019-04-14T04:51:59.660Z,0.43
2019-04-14T04:52:58.933Z,0.41
2019-04-14T04:53:59.471Z,0.49
2019-04-14T04:55:00.112Z,0.41
2019-04-14T04:55:59.303Z,0.41
2019-04-14T04:56:58.844Z,0.37
2019-04-14T04:57:59.100Z,0.49
2019-04-14T04:58:58.996Z,0.40
2019-04-14T04:59:58.726Z,0.41
2019-04-14T05:00:59.566Z,0.52
2019-04-14T05:01:58.704Z,0.50
2019-04-14T05:02:59.340Z,0.49
2019-04-14T05:03:58.696Z,0.56
2019-04-14T05:04:59.142Z,0.50
2019-04-14T05:05:58.660Z,0.44
2019-04-14T05:06:59.265Z,0.40
2019-04-14T05:07:58.638Z,0.52
2019-04-14T05:08:59.101Z,0.41
2019-04-14T05:09:58.617Z,0.36
2019-04-14T05:10:58.962Z,0.43
2019-04-14T05:11:58.603Z,0.43
2019-04-14T05:12:58.687Z,0.47
2019-04-14T05:13:58.582Z,0.46
2019-04-14T05:14:58.884Z,0.47
2019-04-14T05:15:59.640Z,0.43
2019-04-14T05:16:59.311Z,0.52
2019-04-14T05:17:58.588Z,0.50
2019-04-14T05:19:12.216Z,0.50
2019-04-14T05:20:00.716Z,0.41
2019-04-14T05:20:59.623Z,0.40
2019-04-14T05:21:58.479Z,0.43
2019-04-14T05:22:59.375Z,0.49
2019-04-14T05:23:58.563Z,0.62
2019-04-14T05:24:59.282Z,0.58
2019-04-14T05:25:58.582Z,0.56
2019-04-14T05:26:59.255Z,0.58
2019-04-14T05:27:58.551Z,0.59
2019-04-14T05:28:59.124Z,0.58
2019-04-14T05:29:58.395Z,0.60
2019-04-14T05:30:58.937Z,0.60
2019-04-14T05:31:58.384Z,0.60
2019-04-14T05:32:58.758Z,0.56
2019-04-14T05:33:58.373Z,0.58
2019-04-14T05:34:58.734Z,0.55
2019-04-14T05:35:58.358Z,0.58
2019-04-14T05:36:58.554Z,0.63
2019-04-14T05:37:59.608Z,0.65
2019-04-14T05:39:00.269Z,0.66
2019-04-14T05:39:59.283Z,0.66
2019-04-14T05:40:58.573Z,0.69
2019-04-14T05:42:06.559Z,0.68
2019-04-14T05:43:00.243Z,0.76
2019-04-14T05:44:01.459Z,0.73
2019-04-14T05:44:58.279Z,0.86
2019-04-14T05:45:59.125Z,0.84
2019-04-14T05:46:58.221Z,0.96
2019-04-14T05:47:58.904Z,1.08
2019-04-14T05:48:58.230Z,1.05
2019-04-14T05:49:59.335Z,0.96
2019-04-14T05:50:58.177Z,1.01
2019-04-14T05:51:59.189Z,1.12
2019-04-14T05:52:58.182Z,1.16
2019-04-14T05:53:58.972Z,1.12
2019-04-14T05:54:58.165Z,1.22
2019-04-14T05:55:59.274Z,1.28
2019-04-14T05:56:58.192Z,1.31
2019-04-14T05:57:59.191Z,1.04
2019-04-14T05:58:58.121Z,1.22
2019-04-14T05:59:59.418Z,1.24
2019-04-14T06:00:58.263Z,1.17
2019-04-14T06:01:59.338Z,1.24
2019-04-14T06:02:59.505Z,1.38
2019-04-14T06:03:58.233Z,1.35
2019-04-14T06:04:59.343Z,1.31
2019-04-14T06:05:58.193Z,1.38
2019-04-14T06:06:58.025Z,1.35
2019-04-14T06:07:58.318Z,1.40
2019-04-14T06:08:58.001Z,1.50
2019-04-14T06:09:58.119Z,1.45
2019-04-14T06:10:57.977Z,1.49
2019-04-14T06:11:57.973Z,1.50
2019-04-14T06:12:58.005Z,1.45
2019-04-14T06:13:58.168Z,1.55
2019-04-14T06:14:57.966Z,1.52
2019-04-14T06:15:58.322Z,1.44
2019-04-14T06:16:57.936Z,1.48
2019-04-14T06:17:57.960Z,1.50
2019-04-14T06:18:57.901Z,1.48
2019-04-14T06:19:58.087Z,1.45
2019-04-14T06:20:57.876Z,1.58
2019-04-14T06:21:58.018Z,1.53
2019-04-14T06:22:57.906Z,1.52
2019-04-14T06:23:57.863Z,1.56
2019-04-14T06:24:57.846Z,1.60
2019-04-14T06:25:58.033Z,1.62
2019-04-14T06:26:57.875Z,1.60
2019-04-14T06:27:57.997Z,1.62
2019-04-14T06:28:57.797Z,1.73
2019-04-14T06:29:57.829Z,1.63
2019-04-14T06:30:57.794Z,1.67
2019-04-14T06:31:58.050Z,1.66
2019-04-14T06:32:57.801Z,1.71
2019-04-14T06:33:57.898Z,1.71
2019-04-14T06:34:57.750Z,1.76
2019-04-14T06:35:57.748Z,1.73
2019-04-14T06:36:57.721Z,1.85
2019-04-14T06:37:57.770Z,1.87
2019-04-14T06:38:57.708Z,1.87
2019-04-14T06:39:57.960Z,2.00
2019-04-14T06:40:57.689Z,1.99
2019-04-14T06:41:57.706Z,2.04
2019-04-14T06:42:57.719Z,2.06
2019-04-14T06:43:57.782Z,2.11
2019-04-14T06:44:57.655Z,2.11
2019-04-14T06:45:57.661Z,2.10
2019-04-14T06:46:57.611Z,2.13
2019-04-14T06:47:57.649Z,2.10
2019-04-14T06:48:57.610Z,2.07
2019-04-14T06:49:57.694Z,2.13
2019-04-14T06:50:57.585Z,2.15
2019-04-14T06:51:57.625Z,2.10
2019-04-14T06:52:57.655Z,2.11
2019-04-14T06:53:57.582Z,2.17
2019-04-14T06:54:57.530Z,2.14
2019-04-14T06:55:57.673Z,2.13
2019-04-14T06:56:57.515Z,2.22
2019-04-14T06:57:57.620Z,2.18
2019-04-14T06:58:57.489Z,2.17
2019-04-14T06:59:57.566Z,2.28
2019-04-14T07:00:57.467Z,2.31
2019-04-14T07:01:59.331Z,2.32
2019-04-14T07:02:57.478Z,2.33
2019-04-14T07:03:57.475Z,2.39
2019-04-14T07:04:57.422Z,2.44
2019-04-14T07:06:00.073Z,2.46
2019-04-14T07:06:57.424Z,2.50
2019-04-14T07:07:57.733Z,2.56
2019-04-14T07:08:57.417Z,2.57
2019-04-14T07:09:57.443Z,2.57
2019-04-14T07:10:57.367Z,2.65
2019-04-14T07:11:57.461Z,2.57
2019-04-14T07:12:57.343Z,2.61
2019-04-14T07:13:57.415Z,2.62
2019-04-14T07:14:57.383Z,2.67
2019-04-14T07:15:57.428Z,2.72
2019-04-14T07:16:57.299Z,2.54
2019-04-14T07:17:57.386Z,2.69
2019-04-14T07:18:57.322Z,2.71
2019-04-14T07:20:02.142Z,2.82
2019-04-14T07:20:58.273Z,2.74
2019-04-14T07:21:57.335Z,2.80
2019-04-14T07:22:57.246Z,2.85
2019-04-14T07:23:57.370Z,2.83
2019-04-14T07:24:57.327Z,2.80
2019-04-14T07:25:57.239Z,2.79
2019-04-14T07:26:57.251Z,2.79
2019-04-14T07:27:57.212Z,2.77
2019-04-14T07:28:57.327Z,2.77
2019-04-14T07:29:57.172Z,2.79
2019-04-14T07:30:57.161Z,2.75
2019-04-14T07:31:57.142Z,2.86
2019-04-14T07:32:57.286Z,2.85
2019-04-14T07:33:57.179Z,2.77
2019-04-14T07:34:57.215Z,2.82
2019-04-14T07:35:57.111Z,2.75
2019-04-14T07:36:57.487Z,2.74
2019-04-14T07:37:57.087Z,2.82
2019-04-14T07:38:57.121Z,2.95
2019-04-14T07:39:57.085Z,3.05
2019-04-14T07:40:57.159Z,2.93
2019-04-14T07:41:57.056Z,2.95
2019-04-14T07:42:57.160Z,3.01
2019-04-14T07:43:57.004Z,2.95
2019-04-14T07:44:57.131Z,3.07
2019-04-14T07:45:57.039Z,3.07
2019-04-14T07:46:57.088Z,3.14
2019-04-14T07:47:56.996Z,3.11
2019-04-14T07:48:57.104Z,3.23
2019-04-14T07:49:56.946Z,3.28
2019-04-14T07:50:57.078Z,3.29
2019-04-14T07:51:56.927Z,3.28
2019-04-14T07:52:57.060Z,3.36
2019-04-14T07:53:56.921Z,3.37
2019-04-14T07:54:57.072Z,3.36
2019-04-14T07:55:56.968Z,3.40
2019-04-14T07:56:56.981Z,3.40
2019-04-14T07:57:56.919Z,3.37
2019-04-14T07:58:56.995Z,3.25
2019-04-14T07:59:56.867Z,3.34
2019-04-14T08:00:57.140Z,3.36
2019-04-14T08:01:56.973Z,3.41
2019-04-14T08:02:57.840Z,3.36
2019-04-14T08:03:56.910Z,3.31
2019-04-14T08:04:56.834Z,3.32
2019-04-14T08:05:56.953Z,3.36
2019-04-14T08:06:56.892Z,3.47
2019-04-14T08:07:56.766Z,3.55
2019-04-14T08:08:56.765Z,3.58
2019-04-14T08:09:56.936Z,3.55
2019-04-14T08:10:56.762Z,3.68
2019-04-14T08:11:56.958Z,3.66
2019-04-14T08:12:56.727Z,3.76
2019-04-14T08:13:56.725Z,3.80
2019-04-14T08:14:56.779Z,3.81
2019-04-14T08:15:56.862Z,3.86
2019-04-14T08:16:56.732Z,3.96
2019-04-14T08:17:56.846Z,3.86
2019-04-14T08:18:56.678Z,3.88
2019-04-14T08:19:56.666Z,3.91
2019-04-14T08:20:56.653Z,3.84
2019-04-14T08:21:56.826Z,3.92
2019-04-14T08:22:57.892Z,3.95
2019-04-14T08:23:56.788Z,3.88
2019-04-14T08:24:56.611Z,3.98
2019-04-14T08:25:56.581Z,4.04
2019-04-14T08:26:56.614Z,4.12
2019-04-14T08:27:56.711Z,4.17
2019-04-14T08:28:56.568Z,4.28
2019-04-14T08:29:56.741Z,4.13
2019-04-14T08:30:56.545Z,4.32
2019-04-14T08:31:56.585Z,4.40
2019-04-14T08:32:56.503Z,4.42
2019-04-14T08:33:56.648Z,4.66
2019-04-14T08:34:56.513Z,4.84
2019-04-14T08:35:56.684Z,4.87
2019-04-14T08:36:56.473Z,4.92
2019-04-14T08:37:56.501Z,5.18
2019-04-14T08:38:56.508Z,5.29
2019-04-14T08:39:56.429Z,5.33
2019-04-14T08:40:56.535Z,5.41
2019-04-14T08:41:56.417Z,5.38
2019-04-14T08:42:56.736Z,5.26
2019-04-14T08:43:56.422Z,5.25
2019-04-14T08:44:56.533Z,5.32
2019-04-14T08:45:56.373Z,5.39
2019-04-14T08:46:56.476Z,5.53
2019-04-14T08:47:56.441Z,5.46
2019-04-14T08:48:56.464Z,5.54
2019-04-14T08:49:56.367Z,5.48
2019-04-14T08:50:56.391Z,5.47
2019-04-14T08:51:56.338Z,5.54
2019-04-14T08:52:56.438Z,5.39
2019-04-14T08:53:56.304Z,5.39
2019-04-14T08:54:56.399Z,5.43
2019-04-14T08:55:56.311Z,5.48
2019-04-14T08:56:56.270Z,5.44
2019-04-14T08:57:56.337Z,5.38
2019-04-14T08:58:56.302Z,5.44
2019-04-14T08:59:56.355Z,5.43
2019-04-14T09:00:56.240Z,5.35
2019-04-14T09:01:56.239Z,5.44
2019-04-14T09:02:56.219Z,5.38
2019-04-14T09:03:57.357Z,5.59
2019-04-14T09:04:56.308Z,5.57
2019-04-14T09:05:56.255Z,5.68
2019-04-14T09:06:56.180Z,5.69
2019-04-14T09:07:56.226Z,5.65
2019-04-14T09:08:56.164Z,5.66
2019-04-14T09:09:56.308Z,5.75
2019-04-14T09:10:56.147Z,5.82
2019-04-14T09:11:56.222Z,5.86
2019-04-14T09:12:56.111Z,5.84
2019-04-14T09:13:56.153Z,5.91
2019-04-14T09:14:57.535Z,5.82
2019-04-14T09:15:56.164Z,5.86
2019-04-14T09:16:56.062Z,5.82
2019-04-14T09:17:56.177Z,5.87
2019-04-14T09:19:07.172Z,5.82
2019-04-14T09:19:57.209Z,5.86
2019-04-14T09:20:56.034Z,5.82
2019-04-14T09:21:56.137Z,5.86
2019-04-14T09:22:55.996Z,5.76
2019-04-14T09:23:57.083Z,5.93
2019-04-14T09:24:56.034Z,5.91
2019-04-14T09:25:55.986Z,6.01
2019-04-14T09:26:55.975Z,5.86
2019-04-14T09:27:56.081Z,5.87
2019-04-14T09:28:55.930Z,5.98
2019-04-14T09:29:56.306Z,5.91
2019-04-14T09:30:55.933Z,5.91
2019-04-14T09:31:56.361Z,5.94
2019-04-14T09:32:55.888Z,5.89
2019-04-14T09:33:56.034Z,5.97
2019-04-14T09:34:55.912Z,5.98
2019-04-14T09:35:55.970Z,5.97
2019-04-14T09:36:55.850Z,6.08
2019-04-14T09:37:55.882Z,6.11
2019-04-14T09:38:56.104Z,6.22
2019-04-14T09:39:56.024Z,6.24
2019-04-14T09:40:55.836Z,6.20
2019-04-14T09:41:55.932Z,6.33
2019-04-14T09:42:57.729Z,6.42
2019-04-14T09:43:55.843Z,6.48
2019-04-14T09:44:55.808Z,6.46
2019-04-14T09:45:55.932Z,6.41
2019-04-14T09:46:55.741Z,6.49
2019-04-14T09:47:55.862Z,6.51
2019-04-14T09:48:55.719Z,6.56
2019-04-14T09:49:55.794Z,6.42
2019-04-14T09:51:04.737Z,6.39
2019-04-14T09:51:56.713Z,6.44
2019-04-14T09:52:55.837Z,6.52
2019-04-14T09:53:55.705Z,6.51
2019-04-14T09:54:55.787Z,6.44
2019-04-14T09:55:55.710Z,6.45
2019-04-14T09:56:55.662Z,6.59
2019-04-14T09:57:56.769Z,6.74
2019-04-14T09:58:55.620Z,6.84
2019-04-14T09:59:55.877Z,6.85
2019-04-14T10:00:55.672Z,6.88
2019-04-14T10:01:55.785Z,6.93
2019-04-14T10:02:55.598Z,7.03
2019-04-14T10:03:55.766Z,6.99
2019-04-14T10:04:56.027Z,7.15
2019-04-14T10:05:55.680Z,7.11
2019-04-14T10:06:55.576Z,7.28
2019-04-14T10:07:56.838Z,7.32
2019-04-14T10:08:55.672Z,7.14
2019-04-14T10:09:55.514Z,7.25
2019-04-14T10:10:56.542Z,7.35
2019-04-14T10:11:56.506Z,7.35
2019-04-14T10:12:56.636Z,7.43
2019-04-14T10:13:55.460Z,7.42
2019-04-14T10:14:55.452Z,7.51
2019-04-14T10:15:55.454Z,7.53
2019-04-14T10:16:55.663Z,7.58
2019-04-14T10:17:55.645Z,7.72
2019-04-14T10:18:58.756Z,7.57
2019-04-14T10:19:55.454Z,7.63
2019-04-14T10:20:55.432Z,7.63
2019-04-14T10:21:55.389Z,7.61
2019-04-14T10:22:55.782Z,7.67
2019-04-14T10:23:55.374Z,7.63
2019-04-14T10:24:55.577Z,7.70
2019-04-14T10:25:55.348Z,7.77
2019-04-14T10:26:55.349Z,7.94
2019-04-14T10:27:55.327Z,7.91
2019-04-14T10:28:55.520Z,7.80
2019-04-14T10:29:55.398Z,7.83
2019-04-14T10:30:55.337Z,7.97
2019-04-14T10:31:55.272Z,7.93
2019-04-14T10:32:55.293Z,7.98
2019-04-14T10:33:56.413Z,8.10
2019-04-14T10:34:55.659Z,8.15
2019-04-14T10:35:55.456Z,8.15
2019-04-14T10:36:55.269Z,8.28
2019-04-14T10:37:55.358Z,8.10
2019-04-14T10:38:55.403Z,8.16
2019-04-14T10:39:55.422Z,8.24
2019-04-14T10:40:55.292Z,8.26
2019-04-14T10:41:55.396Z,7.88
2019-04-14T10:42:55.157Z,7.69
2019-04-14T10:43:55.304Z,7.33
2019-04-14T10:44:55.154Z,7.60
2019-04-14T10:45:55.317Z,7.75
2019-04-14T10:46:55.147Z,8.08
2019-04-14T10:47:55.330Z,8.30
2019-04-14T10:48:55.106Z,8.56
2019-04-14T10:49:55.453Z,8.74
2019-04-14T10:50:55.093Z,8.95
2019-04-14T10:51:55.261Z,9.13
2019-04-14T10:52:55.090Z,9.23
2019-04-14T10:53:55.173Z,9.22
2019-04-14T10:54:55.077Z,9.32
2019-04-14T10:55:55.166Z,9.43
2019-04-14T10:56:55.028Z,9.41
2019-04-14T10:57:55.204Z,9.25
2019-04-14T10:58:55.007Z,9.02
2019-04-14T10:59:55.167Z,9.06
2019-04-14T11:00:54.975Z,9.16
2019-04-14T11:01:55.104Z,9.22
2019-04-14T11:02:55.007Z,9.37
2019-04-14T11:03:55.141Z,9.39
2019-04-14T11:04:54.961Z,9.21
2019-04-14T11:05:55.042Z,9.26
2019-04-14T11:06:54.906Z,9.39
2019-04-14T11:07:55.063Z,9.47
2019-04-14T11:08:54.886Z,9.74
2019-04-14T11:09:55.048Z,9.97
2019-04-14T11:10:54.882Z,10.44
2019-04-14T11:11:54.976Z,10.84
2019-04-14T11:12:54.852Z,11.60
2019-04-14T11:13:54.974Z,12.24
2019-04-14T11:14:54.939Z,12.78
2019-04-14T11:15:55.005Z,13.31
2019-04-14T11:16:54.807Z,13.99
2019-04-14T11:17:55.755Z,14.11
2019-04-14T11:18:54.928Z,14.43
2019-04-14T11:19:54.980Z,14.48
2019-04-14T11:20:54.757Z,14.40
2019-04-14T11:21:54.946Z,14.68
2019-04-14T11:23:03.188Z,14.92
2019-04-14T11:23:55.810Z,15.27
2019-04-14T11:24:54.916Z,15.28
2019-04-14T11:25:54.726Z,15.09
2019-04-14T11:26:54.713Z,14.55
2019-04-14T11:27:54.861Z,13.42
2019-04-14T11:28:54.683Z,12.76
2019-04-14T11:29:54.976Z,12.61
2019-04-14T11:30:54.685Z,12.36
2019-04-14T11:31:54.829Z,12.24
2019-04-14T11:32:54.654Z,11.97
2019-04-14T11:33:54.832Z,11.80
2019-04-14T11:34:54.658Z,11.77
2019-04-14T11:35:54.735Z,11.65
2019-04-14T11:36:54.606Z,11.52
2019-04-14T11:37:54.583Z,11.44
2019-04-14T11:38:54.584Z,11.52
2019-04-14T11:39:54.718Z,11.45
2019-04-14T11:40:54.586Z,11.44
2019-04-14T11:41:54.664Z,11.54
2019-04-14T11:42:54.545Z,12.31
2019-04-14T11:43:54.525Z,12.70
2019-04-14T11:44:54.614Z,12.76
2019-04-14T11:45:54.720Z,12.65
2019-04-14T11:46:54.490Z,12.70
2019-04-14T11:47:54.678Z,12.58
2019-04-14T11:48:54.468Z,12.70
2019-04-14T11:49:54.553Z,12.53
2019-04-14T11:50:54.458Z,12.27
2019-04-14T11:51:55.793Z,12.07
2019-04-14T11:52:54.442Z,11.99
2019-04-14T11:53:54.532Z,11.80
2019-04-14T11:54:54.489Z,11.54
2019-04-14T11:55:54.429Z,11.52
2019-04-14T11:56:54.380Z,11.48
2019-04-14T11:57:54.457Z,11.47
2019-04-14T11:58:54.379Z,11.68
2019-04-14T11:59:54.529Z,11.75
2019-04-14T12:00:54.375Z,11.68
2019-04-14T12:01:54.332Z,11.91
2019-04-14T12:02:54.537Z,12.06
2019-04-14T12:03:54.342Z,12.07
2019-04-14T12:04:54.419Z,12.04
2019-04-14T12:05:54.279Z,12.31
2019-04-14T12:06:54.488Z,12.55
2019-04-14T12:07:54.292Z,12.67
2019-04-14T12:08:54.458Z,12.70
2019-04-14T12:09:54.291Z,12.73
2019-04-14T12:10:54.361Z,12.93
2019-04-14T12:11:54.543Z,13.25
2019-04-14T12:12:54.350Z,13.16
2019-04-14T12:13:54.223Z,13.38
2019-04-14T12:14:54.390Z,13.30
2019-04-14T12:15:54.186Z,13.25
2019-04-14T12:16:54.294Z,13.05
2019-04-14T12:17:54.328Z,12.80
2019-04-14T12:18:54.334Z,12.18
2019-04-14T12:19:54.144Z,12.00
2019-04-14T12:20:54.332Z,12.09
2019-04-14T12:21:54.119Z,12.25
2019-04-14T12:22:54.322Z,12.46
2019-04-14T12:23:54.155Z,12.73
2019-04-14T12:24:54.257Z,12.82
2019-04-14T12:26:04.731Z,12.45
2019-04-14T12:26:55.076Z,12.10
2019-04-14T12:27:54.165Z,11.75
2019-04-14T12:28:54.099Z,11.37
2019-04-14T12:29:54.487Z,11.22
2019-04-14T12:30:54.047Z,10.84
2019-04-14T12:31:55.192Z,10.51
2019-04-14T12:32:54.192Z,10.33
2019-04-14T12:33:53.994Z,10.15
2019-04-14T12:34:54.294Z,10.05
2019-04-14T12:35:53.966Z,10.05
2019-04-14T12:36:54.422Z,10.12
2019-04-14T12:37:54.324Z,10.25
2019-04-14T12:38:54.064Z,10.22
2019-04-14T12:39:54.621Z,10.30
2019-04-14T12:40:56.355Z,10.28
2019-04-14T12:41:53.896Z,10.48
2019-04-14T12:42:54.030Z,10.41
2019-04-14T12:43:53.911Z,10.35
2019-04-14T12:44:54.051Z,10.22
2019-04-14T12:45:53.851Z,10.30
2019-04-14T12:46:54.033Z,10.33
2019-04-14T12:47:53.857Z,10.31
2019-04-14T12:48:54.150Z,10.33
2019-04-14T12:49:54.498Z,10.15
2019-04-14T12:50:53.901Z,10.17
2019-04-14T12:51:53.793Z,10.19
2019-04-14T12:52:53.953Z,10.20
2019-04-14T12:53:53.866Z,10.17
2019-04-14T12:54:53.750Z,10.05
2019-04-14T12:55:53.761Z,9.83
2019-04-14T12:56:53.790Z,9.87
2019-04-14T12:57:53.814Z,9.87
2019-04-14T12:58:53.912Z,9.82
2019-04-14T12:59:53.882Z,9.79
2019-04-14T13:00:53.729Z,9.74
2019-04-14T13:01:53.954Z,9.92
2019-04-14T13:02:54.170Z,10.07
2019-04-14T13:03:53.713Z,10.20
2019-04-14T13:04:55.363Z,10.10
2019-04-14T13:05:53.637Z,10.20
2019-04-14T13:06:53.680Z,10.22
2019-04-14T13:07:53.631Z,10.19
2019-04-14T13:08:53.712Z,10.01
2019-04-14T13:09:53.746Z,9.66
2019-04-14T13:10:53.718Z,9.37
2019-04-14T13:11:53.590Z,9.26
2019-04-14T13:12:53.828Z,9.13
2019-04-14T13:13:53.554Z,8.97
2019-04-14T13:14:53.715Z,8.91
2019-04-14T13:15:53.535Z,8.87
2019-04-14T13:16:53.665Z,8.85
2019-04-14T13:17:53.536Z,8.79
2019-04-14T13:18:53.697Z,8.85
2019-04-14T13:19:54.042Z,8.89
2019-04-14T13:20:53.778Z,8.85
2019-04-14T13:21:53.561Z,8.88
2019-04-14T13:22:53.687Z,8.95
2019-04-14T13:23:53.490Z,9.03
2019-04-14T13:24:53.559Z,9.02
2019-04-14T13:25:53.489Z,9.06
2019-04-14T13:26:54.490Z,9.28